KBMG/BMG METAR and TAF weather

Enter ICAO airport designator
Station Type Date Time Source
KBMG METAR 2020/09/19 16:53 UTC NOAA

KBMG 191653Z 08007G15KT 10SM CLR 18/03 A3035 RMK AO2 SLP276 T01830028


Station Type Date Time Source
KBMG Decoded METAR 2020/09/19 16:53 UTC NOAA

MONROE COUNTY AIRPORT, IN, United States (KBMG) 39-09N 086-37W 257M
Sep 19, 2020 - 12:53 PM EDT / 2020.09.19 1653 UTC
Wind: from the E (080 degrees) at 8 MPH (7 KT) gusting to 17 MPH (15 KT):0
Visibility: 10 mile(s):0
Sky conditions: clear
Temperature: 64.9 F (18.3 C)
Dew Point: 37.0 F (2.8 C)
Relative Humidity: 35%
Pressure (altimeter): 30.35 in. Hg (1027 hPa)
ob: KBMG 191653Z 08007G15KT 10SM CLR 18/03 A3035 RMK AO2 SLP276 T01830028
cycle: 17

Station Type Date Time Source
KBMG TAF 2020/09/19 18:22 UTC NOAA

TAF KBMG 191720Z 1918/2018 08007KT P6SM SKC

Example: see airport list